Time;durP1;ratioP1;P1;durP2;ratioP2;P2;SDS_P1;SDS_P2;PMS_P1;PMS_P2;Temp;Humidity;BMP_temperature;BMP_pressure;BME280_temperature;BME280_humidity;BME280_pressure;Samples;Min_cycle;Max_cycle;Signal;HPM_P1;HPM_P2
2022/11/16 00:01:17;;;;;;;1999.90;999.90;;;;;;;6.62;100.00;93488.94;4975088;28;20188;-60
2022/11/16 00:03:43;;;;;;;1999.90;999.90;;;;;;;6.51;100.00;93491.13;4974905;28;20198;-60
2022/11/16 00:06:10;;;;;;;1999.90;999.90;;;;;;;6.48;100.00;93471.06;4975519;28;20182;-61
2022/11/16 00:08:39;;;;;;;1999.90;999.90;;;;;;;6.45;100.00;93444.06;4975420;28;20209;-60
2022/11/16 00:11:11;;;;;;;1999.90;999.90;;;;;;;6.35;100.00;93426.84;4975401;28;20295;-61
2022/11/16 00:13:38;;;;;;;1999.90;999.90;;;;;;;6.31;100.00;93390.94;4975375;28;20180;-60
2022/11/16 00:16:05;;;;;;;1999.90;999.90;;;;;;;6.37;100.00;93359.44;4974639;28;20179;-60
2022/11/16 00:18:30;;;;;;;1999.90;999.90;;;;;;;6.43;100.00;93257.44;4974448;28;20268;-65
2022/11/16 00:20:56;;;;;;;1999.90;999.90;;;;;;;6.46;100.00;93247.69;4974752;28;20174;-65
2022/11/16 00:23:22;;;;;;;1999.90;999.90;;;;;;;6.48;100.00;93237.16;4974837;28;20175;-66
2022/11/16 00:25:48;;;;;;;1999.90;999.90;;;;;;;6.53;100.00;93231.97;4975499;28;20181;-65
2022/11/16 00:28:13;;;;;;;1999.90;999.90;;;;;;;6.59;100.00;93237.63;4975771;28;20186;-66
2022/11/16 00:30:39;;;;;;;1999.90;999.90;;;;;;;6.62;100.00;93250.31;4974549;28;20194;-66
2022/11/16 00:33:05;;;;;;;1999.90;999.90;;;;;;;6.65;100.00;93263.03;4975704;28;20179;-66
2022/11/16 00:35:31;;;;;;;1999.90;999.90;;;;;;;6.71;100.00;93283.00;4975267;28;20188;-61
2022/11/16 00:37:56;;;;;;;1999.90;999.90;;;;;;;6.75;100.00;93305.38;4974745;28;20567;-66
2022/11/16 00:40:22;;;;;;;1999.90;999.90;;;;;;;6.81;100.00;93323.38;4974728;28;20182;-66
2022/11/16 00:42:47;;;;;;;1999.90;999.90;;;;;;;6.85;100.00;93347.72;4974780;28;20180;-66
2022/11/16 00:45:13;;;;;;;1999.90;999.90;;;;;;;6.86;100.00;93392.63;4974687;28;20198;-67
2022/11/16 00:47:38;;;;;;;1999.90;999.90;;;;;;;6.88;100.00;93405.75;4974718;28;20174;-69
2022/11/16 00:50:04;;;;;;;1999.90;999.90;;;;;;;6.88;100.00;93438.31;4974484;28;20221;-67
2022/11/16 00:52:29;;;;;;;1999.90;999.90;;;;;;;6.89;100.00;93446.03;4974593;28;20182;-66
2022/11/16 00:54:55;;;;;;;1999.90;999.90;;;;;;;6.89;100.00;93463.06;4974527;28;20228;-63
2022/11/16 00:57:21;;;;;;;1999.90;999.90;;;;;;;6.90;100.00;93477.38;4974647;28;20215;-66
2022/11/16 00:59:46;;;;;;;1999.90;999.90;;;;;;;6.87;100.00;93489.09;4975140;28;20182;-67
2022/11/16 01:02:11;;;;;;;1999.90;999.90;;;;;;;6.87;100.00;93502.66;4974520;28;20166;-67
2022/11/16 01:04:37;;;;;;;1999.90;999.90;;;;;;;6.86;100.00;93506.56;4974315;28;20195;-67
2022/11/16 01:07:02;;;;;;;1999.90;999.90;;;;;;;6.85;100.00;93510.47;4974403;28;20240;-66
2022/11/16 01:09:28;;;;;;;1999.90;999.90;;;;;;;6.84;100.00;93519.78;4974541;28;20252;-67
2022/11/16 01:12:08;;;;;;;1999.90;999.90;;;;;;;6.77;100.00;93511.81;4974203;28;20205;-62
2022/11/16 01:14:46;;;;;;;1999.90;999.90;;;;;;;6.79;100.00;93506.72;4973963;28;20177;-60
2022/11/16 01:17:13;;;;;;;1999.90;999.90;;;;;;;6.74;100.00;93504.53;4974640;28;20588;-61
2022/11/16 01:19:39;;;;;;;1999.90;999.90;;;;;;;6.76;100.00;93505.63;4974520;28;20240;-62
2022/11/16 01:22:05;;;;;;;1999.90;999.90;;;;;;;6.79;100.00;93495.88;4976421;28;20529;-61
2022/11/16 01:24:31;;;;;;;1999.90;999.90;;;;;;;6.76;100.00;93491.31;4978163;28;20171;-60
2022/11/16 01:26:57;;;;;;;1999.90;999.90;;;;;;;6.82;100.00;93476.78;4977767;28;20703;-60
2022/11/16 01:29:27;;;;;;;1999.90;999.90;;;;;;;6.82;100.00;93476.78;4978374;28;20201;-61
2022/11/16 01:31:53;;;;;;;1999.90;999.90;;;;;;;6.85;100.00;93472.50;4978261;28;20186;-57
2022/11/16 01:34:20;;;;;;;1999.90;999.90;;;;;;;6.85;100.00;93467.06;4978231;28;20314;-62
2022/11/16 01:36:45;;;;;;;1999.90;999.90;;;;;;;6.81;100.00;93475.28;4977485;28;20182;-62
2022/11/16 01:39:12;;;;;;;1999.90;999.90;;;;;;;6.85;100.00;93469.78;4978083;28;20217;-61
2022/11/16 01:41:39;;;;;;;1999.90;999.90;;;;;;;6.87;100.00;93475.53;4977880;28;20518;-61
2022/11/16 01:44:26;;;;;;;1999.90;999.90;;;;;;;6.85;100.00;93475.94;4977638;28;20186;-61
2022/11/16 01:46:51;;;;;;;1999.90;999.90;;;;;;;6.92;100.00;93471.53;4977570;28;20181;-61
2022/11/16 01:49:20;;;;;;;1999.90;999.90;;;;;;;6.97;100.00;93479.91;4977759;28;20183;-61
2022/11/16 01:51:50;;;;;;;1999.90;999.90;;;;;;;7.01;100.00;93483.31;4977940;28;20179;-66
2022/11/16 01:54:15;;;;;;;1999.90;999.90;;;;;;;7.05;100.00;93475.84;4977546;28;20227;-67
2022/11/16 01:56:44;;;;;;;1999.90;999.90;;;;;;;7.00;100.00;93495.34;4976978;28;20247;-66
2022/11/16 01:59:10;;;;;;;1999.90;999.90;;;;;;;7.04;100.00;93496.03;4977329;28;20203;-66
2022/11/16 02:01:36;;;;;;;1999.90;999.90;;;;;;;6.91;100.00;93500.59;4977317;28;20189;-66
2022/11/16 02:04:01;;;;;;;1999.90;999.90;;;;;;;6.87;100.00;93499.94;4977664;28;20555;-66
2022/11/16 02:06:32;;;;;;;1999.90;999.90;;;;;;;6.91;100.00;93492.47;4977599;28;20182;-67
2022/11/16 02:12:25;;;;;;;1999.90;999.90;;;;;;;6.83;100.00;93470.19;4978215;28;20238;-61
2022/11/16 02:15:11;;;;;;;1999.90;999.90;;;;;;;6.81;100.00;93466.38;4976631;28;20290;-61
2022/11/16 02:17:52;;;;;;;1999.90;999.90;;;;;;;6.88;100.00;93466.19;4977542;28;20227;-61
2022/11/16 02:20:39;;;;;;;1999.90;999.90;;;;;;;6.97;100.00;93457.44;4977626;28;20179;-63
2022/11/16 02:23:23;;;;;;;1999.90;999.90;;;;;;;6.91;100.00;93451.03;4976850;28;20183;-61
2022/11/16 02:26:42;;;;;;;1999.90;999.90;;;;;;;6.92;100.00;93447.88;4977078;28;20167;-61
2022/11/16 02:29:10;;;;;;;1999.90;999.90;;;;;;;6.93;100.00;93435.06;4940557;29;20185;-61
2022/11/16 02:31:41;;;;;;;1999.90;999.90;;;;;;;6.92;100.00;93445.16;4940472;29;20221;-60
2022/11/16 02:34:09;;;;;;;1999.90;999.90;;;;;;;6.92;100.00;93431.59;4961108;28;20232;-60
2022/11/16 02:36:39;;;;;;;1999.90;999.90;;;;;;;7.01;100.00;93437.19;4976261;28;20171;-60
2022/11/16 02:39:10;;;;;;;1999.90;999.90;;;;;;;7.03;100.00;93440.22;4976324;28;20230;-60
2022/11/16 02:41:40;;;;;;;1999.90;999.90;;;;;;;7.08;100.00;93437.00;4976818;28;20175;-61
2022/11/16 02:44:14;;;;;;;1999.90;999.90;;;;;;;7.11;100.00;93430.72;4976458;28;20177;-60
2022/11/16 02:46:44;;;;;;;1999.90;999.90;;;;;;;7.10;100.00;93426.44;4976135;28;20265;-66
2022/11/16 02:49:14;;;;;;;1999.90;999.90;;;;;;;7.09;100.00;93410.59;4976630;28;20221;-61
2022/11/16 02:51:41;;;;;;;1999.90;999.90;;;;;;;7.04;100.00;93390.19;4976870;28;20175;-61
2022/11/16 02:54:15;;;;;;;1999.90;999.90;;;;;;;6.97;100.00;93371.41;4975970;28;20220;-60
2022/11/16 02:56:51;;;;;;;1999.90;999.90;;;;;;;7.02;100.00;93361.97;4976784;28;20181;-61
2022/11/16 02:59:17;;;;;;;1999.90;999.90;;;;;;;7.01;100.00;93328.66;4976696;28;20181;-61
2022/11/16 03:01:50;;;;;;;1999.90;999.90;;;;;;;7.02;100.00;93319.31;4975976;28;20221;-61
2022/11/16 03:04:25;;;;;;;1999.90;999.90;;;;;;;6.92;100.00;93293.22;4976430;28;20248;-66
2022/11/16 03:06:55;;;;;;;1999.90;999.90;;;;;;;6.90;100.00;93225.09;4976651;28;20179;-60
2022/11/16 03:09:27;;;;;;;1999.90;999.90;;;;;;;6.89;100.00;93197.22;4975599;28;20212;-61
2022/11/16 03:12:00;;;;;;;1999.90;999.90;;;;;;;6.87;100.00;93177.13;4975978;28;20182;-61
2022/11/16 03:14:39;;;;;;;1999.90;999.90;;;;;;;6.87;100.00;93166.28;4976928;28;20165;-60
2022/11/16 03:17:11;;;;;;;1999.90;999.90;;;;;;;6.90;100.00;93168.13;4976306;28;20174;-61
2022/11/16 03:19:42;;;;;;;1999.90;999.90;;;;;;;6.94;100.00;93149.78;4976441;28;20183;-60
2022/11/16 03:22:21;;;;;;;1999.90;999.90;;;;;;;6.93;100.00;93144.81;4975945;28;20205;-67
2022/11/16 03:24:46;;;;;;;1999.90;999.90;;;;;;;6.93;100.00;93132.75;4975954;28;20191;-66
2022/11/16 03:27:15;;;;;;;1999.90;999.90;;;;;;;6.93;100.00;93123.88;4976304;28;20195;-66
2022/11/16 03:29:52;;;;;;;1999.90;999.90;;;;;;;6.84;100.00;93123.75;4975756;28;20183;-66
2022/11/16 03:32:28;;;;;;;1999.90;999.90;;;;;;;6.89;100.00;93120.50;4975350;28;20190;-66
2022/11/16 03:35:01;;;;;;;1999.90;999.90;;;;;;;6.91;100.00;93123.53;4976519;28;20174;-66
2022/11/16 03:37:28;;;;;;;1999.90;999.90;;;;;;;6.94;100.00;93122.66;4975997;28;20207;-66
2022/11/16 03:39:56;;;;;;;1999.90;999.90;;;;;;;6.91;100.00;93134.38;4975063;28;20179;-60
2022/11/16 03:42:24;;;;;;;1999.90;999.90;;;;;;;6.89;100.00;93136.78;4975460;28;20189;-61
2022/11/16 03:44:51;;;;;;;1999.90;999.90;;;;;;;6.80;100.00;93144.81;4975110;28;20188;-60
2022/11/16 03:47:17;;;;;;;1999.90;999.90;;;;;;;6.85;100.00;93147.72;4975715;28;20190;-60
2022/11/16 03:49:44;;;;;;;1999.90;999.90;;;;;;;6.90;100.00;93149.16;4975296;28;20182;-60
2022/11/16 03:52:11;;;;;;;1999.90;999.90;;;;;;;6.94;100.00;93149.78;4975389;28;20225;-61
2022/11/16 03:54:36;;;;;;;1999.90;999.90;;;;;;;6.98;100.00;93164.00;4975049;28;20233;-61
2022/11/16 03:57:02;;;;;;;1999.90;999.90;;;;;;;7.00;100.00;93161.63;4975205;28;20171;-66
2022/11/16 03:59:27;;;;;;;1999.90;999.90;;;;;;;7.03;100.00;93170.84;4975054;28;20177;-67
2022/11/16 04:01:52;;;;;;;1999.90;999.90;;;;;;;7.07;100.00;93172.28;4974977;28;20182;-60
2022/11/16 04:28:11;;;;;;;1999.90;999.90;;;;;;;7.21;100.00;93116.78;4975858;28;20182;-67
2022/11/16 04:29:08;;;;;;;1999.90;999.90;;;;;;;7.21;100.00;93114.81;4975632;28;20206;-66
2022/11/16 04:39:45;;;;;;;1999.90;999.90;;;;;;;7.26;100.00;93084.41;4975866;28;20169;-66
2022/11/16 04:42:21;;;;;;;1999.90;999.90;;;;;;;7.28;100.00;93075.84;4975068;28;20257;-66
2022/11/16 04:47:31;;;;;;;1999.90;999.90;;;;;;;7.33;100.00;93051.59;4975830;28;20209;-65
2022/11/16 04:49:56;;;;;;;1999.90;999.90;;;;;;;7.34;100.00;93047.69;4975023;28;20179;-65
2022/11/16 04:52:21;;;;;;;1999.90;999.90;;;;;;;7.38;100.00;93042.13;4974521;28;20269;-61
2022/11/16 04:54:47;;;;;;;1999.90;999.90;;;;;;;7.40;100.00;93045.94;4974593;28;20581;-60
2022/11/16 04:57:12;;;;;;;1999.90;999.90;;;;;;;7.40;100.00;93043.22;4977001;28;20177;-60
2022/11/16 04:59:37;;;;;;;1999.90;999.90;;;;;;;7.42;100.00;93042.75;4978738;28;20179;-60
2022/11/16 05:02:09;;;;;;;1999.90;999.90;;;;;;;7.44;100.00;93030.28;4977883;28;20181;-61
2022/11/16 05:04:40;;;;;;;1999.90;999.90;;;;;;;7.45;100.00;93025.59;4978747;28;20206;-61
2022/11/16 05:07:09;;;;;;;1999.90;999.90;;;;;;;7.44;100.00;93024.84;4978693;28;20169;-61
2022/11/16 05:09:41;;;;;;;1999.90;999.90;;;;;;;7.43;100.00;93028.00;4978578;28;20192;-60
2022/11/16 05:12:10;;;;;;;1999.90;999.90;;;;;;;7.42;100.00;93023.75;4978638;28;20198;-59
2022/11/16 05:14:36;;;;;;;1999.90;999.90;;;;;;;7.42;100.00;93021.03;4978596;28;20532;-61
2022/11/16 05:17:01;;;;;;;1999.90;999.90;;;;;;;7.40;100.00;93012.59;4978042;28;20182;-60
2022/11/16 05:22:10;;;;;;;1999.90;999.90;;;;;;;7.41;100.00;93009.44;4979140;28;20186;-61
2022/11/16 05:24:36;;;;;;;1999.90;999.90;;;;;;;7.45;100.00;93010.06;4977557;28;20180;-62
2022/11/16 05:27:08;;;;;;;1999.90;999.90;;;;;;;7.43;100.00;93007.03;4977767;28;20182;-61
2022/11/16 05:29:34;;;;;;;1999.90;999.90;;;;;;;7.44;100.00;93011.28;4978404;28;20314;-62
2022/11/16 05:32:00;;;;;;;1999.90;999.90;;;;;;;7.45;100.00;93004.63;4977596;28;20242;-58
2022/11/16 05:34:26;;;;;;;1999.90;999.90;;;;;;;7.46;100.00;92995.28;4977754;28;20187;-59
2022/11/16 05:36:51;;;;;;;1999.90;999.90;;;;;;;7.45;100.00;92985.63;4977454;28;20177;-59
2022/11/16 05:39:17;;;;;;;1999.90;999.90;;;;;;;7.45;100.00;92982.91;4977234;28;20237;-59
2022/11/16 05:41:42;;;;;;;1999.90;999.90;;;;;;;7.46;100.00;92968.13;4977576;28;20229;-58
2022/11/16 05:44:07;;;;;;;1999.90;999.90;;;;;;;7.48;100.00;92957.59;4977869;28;20180;-59
2022/11/16 05:46:33;;;;;;;1999.90;999.90;;;;;;;7.50;100.00;92946.31;4977568;28;20186;-59
2022/11/16 05:48:58;;;;;;;1999.90;999.90;;;;;;;7.49;100.00;92937.38;4977431;28;20181;-60
2022/11/16 05:51:24;;;;;;;1999.90;999.90;;;;;;;7.49;100.00;92928.47;4977145;28;20211;-58
2022/11/16 05:53:49;;;;;;;1999.90;999.90;;;;;;;7.50;100.00;92908.28;4977141;28;20231;-58
2022/11/16 05:56:15;;;;;;;1999.90;999.90;;;;;;;7.50;100.00;92897.44;4978252;28;20650;-58
2022/11/16 05:58:41;;;;;;;1999.90;999.90;;;;;;;7.50;100.00;92898.16;4976994;28;20260;-58
2022/11/16 06:01:07;;;;;;;1999.90;999.90;;;;;;;7.52;100.00;92879.50;4977200;28;20625;-59
2022/11/16 06:03:32;;;;;;;1999.90;999.90;;;;;;;7.53;100.00;92856.56;4977038;28;20187;-58
2022/11/16 06:05:57;;;;;;;1999.90;999.90;;;;;;;7.53;100.00;92853.84;4977143;28;20183;-60
2022/11/16 06:08:23;;;;;;;1999.90;999.90;;;;;;;7.56;100.00;92844.81;4976963;28;20186;-63
2022/11/16 06:10:49;;;;;;;1999.90;999.90;;;;;;;7.58;100.00;92828.81;4976980;28;20185;-62
2022/11/16 06:13:14;;;;;;;1999.90;999.90;;;;;;;7.59;100.00;92821.44;4976943;28;20194;-62
2022/11/16 06:15:40;;;;;;;1999.90;999.90;;;;;;;7.62;100.00;92796.09;4976853;28;20195;-62
2022/11/16 06:18:06;;;;;;;1999.90;999.90;;;;;;;7.63;100.00;92773.94;4977081;28;20207;-60
2022/11/16 06:20:32;;;;;;;1999.90;999.90;;;;;;;7.65;100.00;92885.56;4977172;28;20198;-62
2022/11/16 06:22:58;;;;;;;1999.90;999.90;;;;;;;7.67;100.00;92875.03;4976695;28;20536;-61
2022/11/16 06:25:23;;;;;;;1999.90;999.90;;;;;;;7.68;100.00;92859.50;4976275;28;20191;-59
2022/11/16 06:27:48;;;;;;;1999.90;999.90;;;;;;;7.72;100.00;92833.69;4977063;28;20182;-64
2022/11/16 06:30:14;;;;;;;1999.90;999.90;;;;;;;7.76;100.00;92831.59;4976473;28;20175;-64
2022/11/16 06:32:40;;;;;;;1999.90;999.90;;;;;;;7.79;100.00;92824.53;4976268;28;20221;-63
2022/11/16 06:35:08;;;;;;;1999.90;999.90;;;;;;;7.82;100.00;92816.25;4976281;28;20543;-64
2022/11/16 06:37:33;;;;;;;1999.90;999.90;;;;;;;7.83;100.00;92812.31;4976488;28;20202;-64
2022/11/16 06:39:58;;;;;;;1999.90;999.90;;;;;;;7.86;100.00;92795.13;4976374;28;20174;-64
2022/11/16 06:42:24;;;;;;;1999.90;999.90;;;;;;;7.89;100.00;92772.50;4976494;28;20178;-65
2022/11/16 06:44:49;;;;;;;1999.90;999.90;;;;;;;7.92;100.00;92755.28;4976313;28;20175;-62
2022/11/16 06:47:15;;;;;;;1999.90;999.90;;;;;;;7.94;100.00;92761.00;4976196;28;20213;-59
2022/11/16 06:49:40;;;;;;;1999.90;999.90;;;;;;;7.95;100.00;92759.81;4976484;28;20186;-59
2022/11/16 06:52:05;;;;;;;1999.90;999.90;;;;;;;7.96;100.00;92744.25;4975880;28;20196;-60
2022/11/16 06:54:30;;;;;;;1999.90;999.90;;;;;;;7.95;100.00;92727.22;4975958;28;20604;-60
2022/11/16 06:56:56;;;;;;;1999.90;999.90;;;;;;;7.93;100.00;92718.75;4975919;28;20523;-59
2022/11/16 06:59:21;;;;;;;1999.90;999.90;;;;;;;7.91;100.00;92715.75;4975868;28;20222;-59
2022/11/16 07:01:46;;;;;;;1999.90;999.90;;;;;;;7.91;100.00;92709.56;4975918;28;20214;-61
2022/11/16 07:04:14;;;;;;;1999.90;999.90;;;;;;;7.90;100.00;92702.63;4976519;28;20198;-59
2022/11/16 07:06:40;;;;;;;1999.90;999.90;;;;;;;7.93;100.00;92693.53;4975517;28;20180;-58
2022/11/16 07:09:06;;;;;;;1999.90;999.90;;;;;;;7.97;100.00;92689.47;4975370;28;20185;-58
2022/11/16 07:11:33;;;;;;;1999.90;999.90;;;;;;;7.98;100.00;92690.25;4975518;28;20238;-57
2022/11/16 07:13:59;;;;;;;1999.90;999.90;;;;;;;7.99;100.00;92697.19;4975792;28;20194;-58
2022/11/16 07:16:24;;;;;;;1999.90;999.90;;;;;;;8.01;100.00;92692.78;4975598;28;20182;-57
2022/11/16 07:18:50;;;;;;;1999.90;999.90;;;;;;;8.03;100.00;92686.91;4975286;28;20200;-57
2022/11/16 07:21:16;;;;;;;1999.90;999.90;;;;;;;8.13;100.00;92667.44;4975182;28;20192;-61
2022/11/16 07:23:41;;;;;;;1999.90;999.90;;;;;;;8.19;100.00;92659.44;4975547;28;20183;-60
2022/11/16 07:26:08;;;;;;;1999.90;999.90;;;;;;;8.21;100.00;92643.41;4975787;28;20190;-62
2022/11/16 07:28:34;;;;;;;1999.90;999.90;;;;;;;8.21;100.00;92625.19;4975339;28;20626;-61
2022/11/16 07:31:03;;;;;;;1999.90;999.90;;;;;;;8.17;100.00;92613.69;4975379;28;20190;-61
2022/11/16 07:33:29;;;;;;;1999.90;999.90;;;;;;;8.16;100.00;92606.72;4975769;28;20272;-61
2022/11/16 07:36:03;;;;;;;1999.90;999.90;;;;;;;8.23;100.00;92611.88;4975900;28;20210;-61
2022/11/16 07:38:29;;;;;;;1999.90;999.90;;;;;;;8.29;100.00;92592.97;4975595;28;20199;-61
2022/11/16 07:40:59;;;;;;;1999.90;999.90;;;;;;;8.31;100.00;92582.41;4975776;28;20180;-59
2022/11/16 07:43:25;;;;;;;1999.90;999.90;;;;;;;8.36;100.00;92566.25;4975531;28;20246;-61
2022/11/16 07:45:52;;;;;;;1999.90;999.90;;;;;;;8.39;100.00;92576.22;4975161;28;20210;-58
2022/11/16 07:48:17;;;;;;;1999.90;999.90;;;;;;;8.45;100.00;92587.94;4974924;28;20263;-57
2022/11/16 07:50:42;;;;;;;1999.90;999.90;;;;;;;8.48;100.00;92578.13;4974853;28;20235;-57
2022/11/16 07:53:07;;;;;;;1999.90;999.90;;;;;;;8.54;100.00;92577.06;4974961;28;20192;-59
2022/11/16 07:55:33;;;;;;;1999.90;999.90;;;;;;;8.60;100.00;92564.31;4974783;28;20227;-58
2022/11/16 07:57:58;;;;;;;1999.90;999.90;;;;;;;8.67;100.00;92563.25;4975183;28;20233;-60
2022/11/16 08:00:23;;;;;;;1999.90;999.90;;;;;;;8.73;100.00;92562.16;4975501;28;20188;-61
2022/11/16 08:02:49;;;;;;;1999.90;999.90;;;;;;;8.81;100.00;92552.44;4974511;28;20176;-61
2022/11/16 08:05:15;;;;;;;1999.90;999.90;;;;;;;8.86;100.00;92543.66;4974833;28;20291;-61
2022/11/16 08:07:40;;;;;;;1999.90;999.90;;;;;;;8.93;100.00;92540.59;4975101;28;20275;-61
2022/11/16 08:10:06;;;;;;;1999.90;999.90;;;;;;;8.97;100.00;92541.19;4974972;28;20187;-61
2022/11/16 08:12:31;;;;;;;1999.90;999.90;;;;;;;9.02;100.00;92540.56;4974841;28;20264;-61
2022/11/16 08:14:56;;;;;;;1999.90;999.90;;;;;;;9.06;100.00;92541.13;4974789;28;20180;-57
2022/11/16 08:17:22;;;;;;;1999.90;999.90;;;;;;;9.09;100.00;92540.22;4975211;28;20180;-61
2022/11/16 08:19:47;;;;;;;1999.90;999.90;;;;;;;9.11;100.00;92537.75;4975277;28;20510;-65
2022/11/16 08:22:12;;;;;;;1999.90;999.90;;;;;;;9.12;100.00;92550.19;4975126;28;20177;-65
2022/11/16 08:24:38;;;;;;;1999.90;999.90;;;;;;;9.12;100.00;92542.00;4975405;28;20228;-66
2022/11/16 08:27:03;;;;;;;1999.90;999.90;;;;;;;9.14;100.00;92553.16;4974924;28;20187;-64
2022/11/16 08:29:28;;;;;;;1999.90;999.90;;;;;;;9.15;100.00;92554.66;4974817;28;20173;-65
2022/11/16 08:31:54;;;;;;;1999.90;999.90;;;;;;;9.14;100.00;92555.88;4976294;28;20178;-64
2022/11/16 08:34:20;;;;;;;1999.90;999.90;;;;;;;9.17;100.00;92554.97;4978820;28;20199;-54
2022/11/16 08:36:45;;;;;;;1999.90;999.90;;;;;;;9.21;100.00;92557.50;4978660;28;20179;-60
2022/11/16 08:39:11;;;;;;;1999.90;999.90;;;;;;;9.23;100.00;92553.13;4979083;28;20210;-60
2022/11/16 08:41:36;;;;;;;1999.90;999.90;;;;;;;9.25;100.00;92558.84;4979163;28;20173;-60
2022/11/16 08:44:02;;;;;;;1999.90;999.90;;;;;;;9.28;100.00;92563.38;4978549;28;20175;-59
2022/11/16 08:46:27;;;;;;;1999.90;999.90;;;;;;;9.30;100.00;92560.94;4978817;28;20208;-60
2022/11/16 08:48:56;;;;;;;1999.90;999.90;;;;;;;9.36;100.00;92558.34;4978644;28;20215;-59
2022/11/16 08:51:23;;;;;;;1999.90;999.90;;;;;;;9.39;100.00;92552.69;4978801;28;20254;-59
2022/11/16 08:53:53;;;;;;;1999.90;999.90;;;;;;;9.41;100.00;92561.19;4978296;28;20224;-64
2022/11/16 08:56:19;;;;;;;1999.90;999.90;;;;;;;9.43;100.00;92556.00;4978671;28;20200;-59
2022/11/16 08:58:47;;;;;;;1999.90;999.90;;;;;;;9.42;100.00;92556.47;4978971;28;20196;-59
2022/11/16 09:01:19;;;;;;;1999.90;999.90;;;;;;;9.44;100.00;92559.50;4978715;28;20264;-59
2022/11/16 09:03:45;;;;;;;1999.90;999.90;;;;;;;9.45;100.00;92558.25;4978405;28;20231;-59
2022/11/16 09:06:11;;;;;;;1999.90;999.90;;;;;;;9.50;100.00;92558.38;4978090;28;20231;-60
2022/11/16 09:08:39;;;;;;;1999.90;999.90;;;;;;;9.53;100.00;92562.91;4978026;28;20527;-59
2022/11/16 09:11:07;;;;;;;1999.90;999.90;;;;;;;9.57;100.00;92558.00;4977979;28;20184;-61
2022/11/16 09:13:32;;;;;;;1999.90;999.90;;;;;;;9.63;100.00;92558.88;4977846;28;20173;-63
2022/11/16 09:15:58;;;;;;;1999.90;999.90;;;;;;;9.66;100.00;92560.66;4977700;28;20315;-65
2022/11/16 09:18:25;;;;;;;1999.90;999.90;;;;;;;9.74;100.00;92561.81;4977874;28;20248;-63
2022/11/16 09:20:50;;;;;;;1999.90;999.90;;;;;;;9.80;100.00;92562.66;4977631;28;20220;-63
2022/11/16 09:23:16;;;;;;;1999.90;999.90;;;;;;;9.83;100.00;92569.91;4977983;28;20224;-63
2022/11/16 09:25:43;;;;;;;1999.90;999.90;;;;;;;9.90;100.00;92561.38;4978069;28;20177;-63
2022/11/16 09:28:10;;;;;;;1999.90;999.90;;;;;;;10.02;100.00;92565.06;4978583;28;20184;-64
2022/11/16 09:30:35;;;;;;;1999.90;999.90;;;;;;;10.09;100.00;92560.00;4978621;28;20176;-64
2022/11/16 09:33:00;;;;;;;1999.90;999.90;;;;;;;10.18;100.00;92561.91;4977606;28;20192;-59
2022/11/16 09:35:26;;;;;;;1999.90;999.90;;;;;;;10.26;100.00;92562.28;4977575;28;20177;-59
2022/11/16 09:37:51;;;;;;;1999.90;999.90;;;;;;;10.27;100.00;92577.41;4977429;28;20212;-59
2022/11/16 09:40:17;;;;;;;1999.90;999.90;;;;;;;10.37;100.00;92573.38;4977542;28;20189;-59
2022/11/16 09:43:05;;;;;;;1999.90;999.90;;;;;;;10.41;100.00;92582.88;4976631;28;20189;-59
2022/11/16 09:45:53;;;;;;;1999.90;999.90;;;;;;;10.47;100.00;92593.88;4978484;28;20169;-60
2022/11/16 09:48:20;;;;;;;1999.90;999.90;;;;;;;10.53;100.00;92597.47;4977937;28;20188;-61
2022/11/16 09:50:52;;;;;;;1999.90;999.90;;;;;;;10.60;100.00;92597.09;4977883;28;20195;-59
2022/11/16 09:53:29;;;;;;;1999.90;999.90;;;;;;;10.58;100.00;92604.97;4978299;28;20185;-66
2022/11/16 09:56:06;;;;;;;1999.90;999.90;;;;;;;10.60;100.00;92610.72;4980432;28;20191;-59
2022/11/16 09:58:43;;;;;;;1999.90;999.90;;;;;;;10.63;100.00;92618.72;4980571;28;20307;-58
2022/11/16 10:01:20;;;;;;;1999.90;999.90;;;;;;;10.62;100.00;92627.38;4980893;28;20182;-59
2022/11/16 10:03:49;;;;;;;1999.90;999.90;;;;;;;10.55;100.00;92633.19;4980730;28;20191;-59
2022/11/16 10:06:35;;;;;;;1999.90;999.90;;;;;;;10.51;100.00;92644.31;4979695;28;20227;-64
2022/11/16 10:09:01;;;;;;;1999.90;999.90;;;;;;;10.52;100.00;92645.06;4980833;28;20182;-60
2022/11/16 10:11:39;;;;;;;1999.90;999.90;;;;;;;10.50;100.00;92648.28;4980080;28;20176;-59
2022/11/16 10:14:27;;;;;;;1999.90;999.90;;;;;;;10.49;100.00;92656.91;4979873;28;20176;-59
2022/11/16 10:17:24;;;;;;;1999.90;999.90;;;;;;;10.50;100.00;92663.88;4980154;28;20200;-61
2022/11/16 10:20:03;;;;;;;1999.90;999.90;;;;;;;10.49;100.00;92663.09;4979818;28;20278;-59
2022/11/16 10:22:32;;;;;;;1999.90;999.90;;;;;;;10.55;100.00;92665.94;4980877;28;20168;-59
2022/11/16 10:25:00;;;;;;;1999.90;999.90;;;;;;;10.59;100.00;92658.34;4979865;28;20271;-59
2022/11/16 10:27:50;;;;;;;1999.90;999.90;;;;;;;10.65;100.00;92661.91;4979625;28;20235;-59
2022/11/16 10:30:18;;;;;;;1999.90;999.90;;;;;;;10.67;100.00;92662.19;4980203;28;20176;-59
2022/11/16 10:33:05;;;;;;;1999.90;999.90;;;;;;;10.60;100.00;92679.69;4996722;28;20183;-59
2022/11/16 10:35:38;;;;;;;1999.90;999.90;;;;;;;10.53;100.00;92673.84;4979850;28;20177;-61
2022/11/16 10:38:14;;;;;;;1999.90;999.90;;;;;;;10.50;100.00;92682.97;4980240;28;20208;-60
2022/11/16 10:40:40;;;;;;;1999.90;999.90;;;;;;;10.46;100.00;92701.50;4979713;28;20183;-61
2022/11/16 10:43:22;;;;;;;1999.90;999.90;;;;;;;10.46;100.00;92696.03;4979301;28;20172;-63
2022/11/16 10:45:54;;;;;;;1999.90;999.90;;;;;;;10.48;100.00;92699.06;4979948;28;20187;-58
2022/11/16 10:48:40;;;;;;;1999.90;999.90;;;;;;;10.49;100.00;92708.75;4980126;28;20227;-57
2022/11/16 10:51:07;;;;;;;1999.90;999.90;;;;;;;10.44;100.00;92720.31;4979177;28;20220;-57
2022/11/16 10:53:35;;;;;;;1999.90;999.90;;;;;;;10.51;100.00;92717.22;4978838;28;20286;-58
2022/11/16 10:56:10;;;;;;;1999.90;999.90;;;;;;;10.54;100.00;92719.00;4978895;28;20236;-60
2022/11/16 10:58:58;;;;;;;1999.90;999.90;;;;;;;10.58;100.00;92714.13;4979290;28;20215;-60
2022/11/16 11:01:30;;;;;;;1999.90;999.90;;;;;;;10.62;100.00;92709.22;4979167;28;20203;-60
2022/11/16 11:03:56;;;;;;;1999.90;999.90;;;;;;;10.63;100.00;92727.13;4979186;28;20249;-61
2022/11/16 11:06:24;;;;;;;1999.90;999.90;;;;;;;10.71;100.00;92712.63;4979318;28;20180;-61
2022/11/16 11:08:50;;;;;;;1999.90;999.90;;;;;;;10.84;100.00;92701.44;4979099;28;20183;-60
2022/11/16 11:14:09;;;;;;;1999.90;999.90;;;;;;;10.94;100.00;92702.84;4996729;28;20214;-61
2022/11/16 11:16:34;;;;;;;1999.90;999.90;;;;;;;10.96;100.00;92703.16;4979605;28;20198;-58
2022/11/16 11:19:26;;;;;;;1999.90;999.90;;;;;;;11.04;100.00;92701.53;4978594;28;20210;-60
2022/11/16 11:21:59;;;;;;;1999.90;999.90;;;;;;;11.06;100.00;92704.53;4978960;28;20195;-63
2022/11/16 11:24:25;;;;;;;1999.90;999.90;;;;;;;11.07;100.00;92717.00;4978727;28;20180;-61
2022/11/16 11:26:56;;;;;;;1999.90;999.90;;;;;;;11.09;100.00;92725.44;4978741;28;20226;-61
2022/11/16 11:29:25;;;;;;;1999.90;999.90;;;;;;;11.08;100.00;92740.34;4978799;28;20288;-62
2022/11/16 11:32:03;;;;;;;1999.90;999.90;;;;;;;11.06;100.00;92750.97;4978764;28;20168;-60
2022/11/16 11:34:40;;;;;;;1999.90;999.90;;;;;;;11.14;100.00;92763.03;4978222;28;20181;-61
2022/11/16 11:37:29;;;;;;;1999.90;999.90;;;;;;;11.24;100.00;92773.41;4979068;28;20180;-62
2022/11/16 11:40:18;;;;;;;1999.90;999.90;;;;;;;11.36;100.00;92788.00;4978283;28;20272;-62
2022/11/16 11:43:11;;;;;;;1999.90;999.90;;;;;;;11.40;100.00;92810.44;4978623;28;20181;-67